<?xml version="1.0" encoding="UTF-8" standalone="no" ?>
<gpx xmlns="http://www.topografix.com/GPX/1/1" xmlns:xsi="http://www.w3.org/2001/XMLSchema-instance" xsi:schemaLocation="http://www.topografix.com/GPX/1/1 http://www.topografix.com/GPX/1/1/gpx.xsd" version="1.1" creator="VisuGPX - https://www.visugpx.com">
  <metadata>
    <name>180905 - Luc-Periers-Mathieu-Basly-Tailleville</name>
    <desc><![CDATA[Circuit en handbike du 5 septembre 2018]]></desc>
  </metadata>
  <trk>
    <name><![CDATA[180905 - Luc-Periers-Mathieu-Basly-Tailleville]]></name>
    <trkseg>
      <trkpt lat="49.32674" lon="-0.38084">
        <ele>-27.74</ele>
        <time>2018-09-05T12:50:39Z</time>
      </trkpt>
      <trkpt lat="49.32695" lon="-0.38055">
        <ele>-27.26</ele>
        <time>2018-09-05T12:50:55Z</time>
      </trkpt>
      <trkpt lat="49.32678" lon="-0.37962">
        <ele>-27.26</ele>
        <time>2018-09-05T12:51:16Z</time>
      </trkpt>
      <trkpt lat="49.32666" lon="-0.37902">
        <ele>-27.26</ele>
        <time>2018-09-05T12:51:33Z</time>
      </trkpt>
      <trkpt lat="49.32645" lon="-0.37783">
        <ele>-25.82</ele>
        <time>2018-09-05T12:51:52Z</time>
      </trkpt>
      <trkpt lat="49.32639" lon="-0.37759">
        <ele>-25.82</ele>
        <time>2018-09-05T12:51:55Z</time>
      </trkpt>
      <trkpt lat="49.32614" lon="-0.37624">
        <ele>-26.3</ele>
        <time>2018-09-05T12:52:14Z</time>
      </trkpt>
      <trkpt lat="49.32609" lon="-0.37528">
        <ele>-26.78</ele>
        <time>2018-09-05T12:52:31Z</time>
      </trkpt>
      <trkpt lat="49.32595" lon="-0.37401">
        <ele>-27.74</ele>
        <time>2018-09-05T12:52:52Z</time>
      </trkpt>
      <trkpt lat="49.32593" lon="-0.37343">
        <ele>-27.26</ele>
        <time>2018-09-05T12:53:05Z</time>
      </trkpt>
      <trkpt lat="49.32633" lon="-0.37315">
        <ele>-26.78</ele>
        <time>2018-09-05T12:53:19Z</time>
      </trkpt>
      <trkpt lat="49.32658" lon="-0.37284">
        <ele>-29.66</ele>
        <time>2018-09-05T12:53:33Z</time>
      </trkpt>
      <trkpt lat="49.32638" lon="-0.37213">
        <ele>-29.18</ele>
        <time>2018-09-05T12:53:50Z</time>
      </trkpt>
      <trkpt lat="49.32614" lon="-0.37132">
        <ele>-28.7</ele>
        <time>2018-09-05T12:54:06Z</time>
      </trkpt>
      <trkpt lat="49.32591" lon="-0.37043">
        <ele>-26.78</ele>
        <time>2018-09-05T12:54:24Z</time>
      </trkpt>
      <trkpt lat="49.32561" lon="-0.36938">
        <ele>-25.34</ele>
        <time>2018-09-05T12:54:41Z</time>
      </trkpt>
      <trkpt lat="49.32528" lon="-0.36825">
        <ele>-24.86</ele>
        <time>2018-09-05T12:54:59Z</time>
      </trkpt>
      <trkpt lat="49.32523" lon="-0.36812">
        <ele>-23.41</ele>
        <time>2018-09-05T12:55:03Z</time>
      </trkpt>
      <trkpt lat="49.32513" lon="-0.36807">
        <ele>-23.41</ele>
        <time>2018-09-05T12:55:06Z</time>
      </trkpt>
      <trkpt lat="49.32489" lon="-0.36822">
        <ele>-21.97</ele>
        <time>2018-09-05T12:55:17Z</time>
      </trkpt>
      <trkpt lat="49.3248" lon="-0.36809">
        <ele>-21.49</ele>
        <time>2018-09-05T12:55:22Z</time>
      </trkpt>
      <trkpt lat="49.32452" lon="-0.36703">
        <ele>-21.01</ele>
        <time>2018-09-05T12:55:37Z</time>
      </trkpt>
      <trkpt lat="49.32413" lon="-0.36575">
        <ele>-19.09</ele>
        <time>2018-09-05T12:55:53Z</time>
      </trkpt>
      <trkpt lat="49.32378" lon="-0.36445">
        <ele>-18.13</ele>
        <time>2018-09-05T12:56:08Z</time>
      </trkpt>
      <trkpt lat="49.32366" lon="-0.36362">
        <ele>-19.09</ele>
        <time>2018-09-05T12:56:22Z</time>
      </trkpt>
      <trkpt lat="49.32359" lon="-0.36306">
        <ele>-18.61</ele>
        <time>2018-09-05T12:56:41Z</time>
      </trkpt>
      <trkpt lat="49.32349" lon="-0.36271">
        <ele>-18.61</ele>
        <time>2018-09-05T12:56:52Z</time>
      </trkpt>
      <trkpt lat="49.32317" lon="-0.36185">
        <ele>-19.57</ele>
        <time>2018-09-05T12:57:16Z</time>
      </trkpt>
      <trkpt lat="49.3231" lon="-0.36167">
        <ele>-21.01</ele>
        <time>2018-09-05T12:57:20Z</time>
      </trkpt>
      <trkpt lat="49.32283" lon="-0.3611">
        <ele>-19.09</ele>
        <time>2018-09-05T12:57:34Z</time>
      </trkpt>
      <trkpt lat="49.32258" lon="-0.36061">
        <ele>-21.01</ele>
        <time>2018-09-05T12:57:51Z</time>
      </trkpt>
      <trkpt lat="49.32216" lon="-0.35969">
        <ele>-21.49</ele>
        <time>2018-09-05T12:58:14Z</time>
      </trkpt>
      <trkpt lat="49.32192" lon="-0.35918">
        <ele>-23.41</ele>
        <time>2018-09-05T12:58:32Z</time>
      </trkpt>
      <trkpt lat="49.32186" lon="-0.35909">
        <ele>-22.93</ele>
        <time>2018-09-05T12:58:44Z</time>
      </trkpt>
      <trkpt lat="49.32177" lon="-0.35885">
        <ele>-22.45</ele>
        <time>2018-09-05T12:58:55Z</time>
      </trkpt>
      <trkpt lat="49.3218" lon="-0.35875">
        <ele>-22.45</ele>
        <time>2018-09-05T12:59:00Z</time>
      </trkpt>
      <trkpt lat="49.32171" lon="-0.35806">
        <ele>-22.93</ele>
        <time>2018-09-05T12:59:18Z</time>
      </trkpt>
      <trkpt lat="49.32138" lon="-0.35701">
        <ele>-22.45</ele>
        <time>2018-09-05T12:59:43Z</time>
      </trkpt>
      <trkpt lat="49.32136" lon="-0.35695">
        <ele>-23.9</ele>
        <time>2018-09-05T12:59:45Z</time>
      </trkpt>
      <trkpt lat="49.321" lon="-0.35623">
        <ele>-23.41</ele>
        <time>2018-09-05T13:00:09Z</time>
      </trkpt>
      <trkpt lat="49.3207" lon="-0.35544">
        <ele>-22.45</ele>
        <time>2018-09-05T13:00:29Z</time>
      </trkpt>
      <trkpt lat="49.32025" lon="-0.35432">
        <ele>-21.97</ele>
        <time>2018-09-05T13:00:46Z</time>
      </trkpt>
      <trkpt lat="49.31995" lon="-0.35356">
        <ele>-21.49</ele>
        <time>2018-09-05T13:01:02Z</time>
      </trkpt>
      <trkpt lat="49.31949" lon="-0.35243">
        <ele>-21.49</ele>
        <time>2018-09-05T13:01:19Z</time>
      </trkpt>
      <trkpt lat="49.31896" lon="-0.35116">
        <ele>-21.49</ele>
        <time>2018-09-05T13:01:39Z</time>
      </trkpt>
      <trkpt lat="49.3184" lon="-0.34975">
        <ele>-20.05</ele>
        <time>2018-09-05T13:02:00Z</time>
      </trkpt>
      <trkpt lat="49.31782" lon="-0.34873">
        <ele>-19.57</ele>
        <time>2018-09-05T13:02:34Z</time>
      </trkpt>
      <trkpt lat="49.31772" lon="-0.34813">
        <ele>-20.05</ele>
        <time>2018-09-05T13:03:10Z</time>
      </trkpt>
      <trkpt lat="49.31736" lon="-0.34708">
        <ele>-18.61</ele>
        <time>2018-09-05T13:03:25Z</time>
      </trkpt>
      <trkpt lat="49.31694" lon="-0.34579">
        <ele>-18.61</ele>
        <time>2018-09-05T13:03:48Z</time>
      </trkpt>
      <trkpt lat="49.31667" lon="-0.345">
        <ele>-18.13</ele>
        <time>2018-09-05T13:04:09Z</time>
      </trkpt>
      <trkpt lat="49.31636" lon="-0.34422">
        <ele>-18.13</ele>
        <time>2018-09-05T13:04:21Z</time>
      </trkpt>
      <trkpt lat="49.31617" lon="-0.34375">
        <ele>-18.61</ele>
        <time>2018-09-05T13:04:28Z</time>
      </trkpt>
      <trkpt lat="49.31554" lon="-0.34282">
        <ele>-18.13</ele>
        <time>2018-09-05T13:04:48Z</time>
      </trkpt>
      <trkpt lat="49.31498" lon="-0.34213">
        <ele>-16.69</ele>
        <time>2018-09-05T13:06:08Z</time>
      </trkpt>
      <trkpt lat="49.31491" lon="-0.3422">
        <ele>-16.21</ele>
        <time>2018-09-05T13:06:12Z</time>
      </trkpt>
      <trkpt lat="49.31462" lon="-0.34242">
        <ele>-13.8</ele>
        <time>2018-09-05T13:06:28Z</time>
      </trkpt>
      <trkpt lat="49.31413" lon="-0.3429">
        <ele>-12.36</ele>
        <time>2018-09-05T13:06:52Z</time>
      </trkpt>
      <trkpt lat="49.31364" lon="-0.3434">
        <ele>-11.4</ele>
        <time>2018-09-05T13:07:08Z</time>
      </trkpt>
      <trkpt lat="49.31286" lon="-0.34424">
        <ele>-10.92</ele>
        <time>2018-09-05T13:07:25Z</time>
      </trkpt>
      <trkpt lat="49.31201" lon="-0.34514">
        <ele>-9.48</ele>
        <time>2018-09-05T13:07:43Z</time>
      </trkpt>
      <trkpt lat="49.3111" lon="-0.34613">
        <ele>-9</ele>
        <time>2018-09-05T13:08:01Z</time>
      </trkpt>
      <trkpt lat="49.30999" lon="-0.34734">
        <ele>-8.03</ele>
        <time>2018-09-05T13:08:23Z</time>
      </trkpt>
      <trkpt lat="49.30895" lon="-0.34854">
        <ele>-7.55</ele>
        <time>2018-09-05T13:08:46Z</time>
      </trkpt>
      <trkpt lat="49.30852" lon="-0.34907">
        <ele>-9</ele>
        <time>2018-09-05T13:09:02Z</time>
      </trkpt>
      <trkpt lat="49.30825" lon="-0.34937">
        <ele>-8.51</ele>
        <time>2018-09-05T13:09:15Z</time>
      </trkpt>
      <trkpt lat="49.30822" lon="-0.34941">
        <ele>-8.51</ele>
        <time>2018-09-05T13:09:16Z</time>
      </trkpt>
      <trkpt lat="49.30789" lon="-0.3503">
        <ele>-7.07</ele>
        <time>2018-09-05T13:09:33Z</time>
      </trkpt>
      <trkpt lat="49.30774" lon="-0.35087">
        <ele>-6.11</ele>
        <time>2018-09-05T13:09:43Z</time>
      </trkpt>
      <trkpt lat="49.30757" lon="-0.35118">
        <ele>-6.11</ele>
        <time>2018-09-05T13:09:50Z</time>
      </trkpt>
      <trkpt lat="49.30692" lon="-0.35181">
        <ele>-5.15</ele>
        <time>2018-09-05T13:10:09Z</time>
      </trkpt>
      <trkpt lat="49.30701" lon="-0.35235">
        <ele>-3.71</ele>
        <time>2018-09-05T13:10:20Z</time>
      </trkpt>
      <trkpt lat="49.30745" lon="-0.35347">
        <ele>-3.71</ele>
        <time>2018-09-05T13:10:39Z</time>
      </trkpt>
      <trkpt lat="49.3078" lon="-0.35444">
        <ele>-2.75</ele>
        <time>2018-09-05T13:10:58Z</time>
      </trkpt>
      <trkpt lat="49.30785" lon="-0.35458">
        <ele>-3.71</ele>
        <time>2018-09-05T13:11:07Z</time>
      </trkpt>
      <trkpt lat="49.30783" lon="-0.35465">
        <ele>-3.71</ele>
        <time>2018-09-05T13:11:12Z</time>
      </trkpt>
      <trkpt lat="49.30738" lon="-0.35504">
        <ele>-2.75</ele>
        <time>2018-09-05T13:11:30Z</time>
      </trkpt>
      <trkpt lat="49.30644" lon="-0.35566">
        <ele>-1.79</ele>
        <time>2018-09-05T13:11:51Z</time>
      </trkpt>
      <trkpt lat="49.30507" lon="-0.3561">
        <ele>1.1</ele>
        <time>2018-09-05T13:12:13Z</time>
      </trkpt>
      <trkpt lat="49.30407" lon="-0.35636">
        <ele>4.46</ele>
        <time>2018-09-05T13:12:29Z</time>
      </trkpt>
      <trkpt lat="49.30302" lon="-0.35669">
        <ele>7.35</ele>
        <time>2018-09-05T13:12:46Z</time>
      </trkpt>
      <trkpt lat="49.30127" lon="-0.35719">
        <ele>10.23</ele>
        <time>2018-09-05T13:13:14Z</time>
      </trkpt>
      <trkpt lat="49.29976" lon="-0.35799">
        <ele>12.15</ele>
        <time>2018-09-05T13:13:39Z</time>
      </trkpt>
      <trkpt lat="49.29778" lon="-0.35874">
        <ele>14.08</ele>
        <time>2018-09-05T13:14:11Z</time>
      </trkpt>
      <trkpt lat="49.29615" lon="-0.3592">
        <ele>15.52</ele>
        <time>2018-09-05T13:14:38Z</time>
      </trkpt>
      <trkpt lat="49.29504" lon="-0.35918">
        <ele>15.04</ele>
        <time>2018-09-05T13:14:57Z</time>
      </trkpt>
      <trkpt lat="49.2937" lon="-0.35896">
        <ele>14.56</ele>
        <time>2018-09-05T13:15:21Z</time>
      </trkpt>
      <trkpt lat="49.29254" lon="-0.35863">
        <ele>12.63</ele>
        <time>2018-09-05T13:15:46Z</time>
      </trkpt>
      <trkpt lat="49.29193" lon="-0.35842">
        <ele>11.67</ele>
        <time>2018-09-05T13:16:01Z</time>
      </trkpt>
      <trkpt lat="49.29191" lon="-0.35841">
        <ele>11.19</ele>
        <time>2018-09-05T13:16:19Z</time>
      </trkpt>
      <trkpt lat="49.2916" lon="-0.35824">
        <ele>12.15</ele>
        <time>2018-09-05T13:16:33Z</time>
      </trkpt>
      <trkpt lat="49.29047" lon="-0.35768">
        <ele>11.19</ele>
        <time>2018-09-05T13:16:55Z</time>
      </trkpt>
      <trkpt lat="49.28935" lon="-0.35737">
        <ele>9.75</ele>
        <time>2018-09-05T13:17:16Z</time>
      </trkpt>
      <trkpt lat="49.28901" lon="-0.35729">
        <ele>10.23</ele>
        <time>2018-09-05T13:17:23Z</time>
      </trkpt>
      <trkpt lat="49.28881" lon="-0.35699">
        <ele>10.23</ele>
        <time>2018-09-05T13:17:30Z</time>
      </trkpt>
      <trkpt lat="49.28843" lon="-0.35581">
        <ele>10.71</ele>
        <time>2018-09-05T13:17:47Z</time>
      </trkpt>
      <trkpt lat="49.28828" lon="-0.35563">
        <ele>10.71</ele>
        <time>2018-09-05T13:17:58Z</time>
      </trkpt>
      <trkpt lat="49.28774" lon="-0.35596">
        <ele>11.19</ele>
        <time>2018-09-05T13:18:16Z</time>
      </trkpt>
      <trkpt lat="49.28729" lon="-0.3562">
        <ele>11.67</ele>
        <time>2018-09-05T13:18:31Z</time>
      </trkpt>
      <trkpt lat="49.28644" lon="-0.35693">
        <ele>12.63</ele>
        <time>2018-09-05T13:18:52Z</time>
      </trkpt>
      <trkpt lat="49.28625" lon="-0.35705">
        <ele>12.63</ele>
        <time>2018-09-05T13:18:58Z</time>
      </trkpt>
      <trkpt lat="49.28617" lon="-0.35693">
        <ele>13.12</ele>
        <time>2018-09-05T13:19:02Z</time>
      </trkpt>
      <trkpt lat="49.28578" lon="-0.35619">
        <ele>15.04</ele>
        <time>2018-09-05T13:19:18Z</time>
      </trkpt>
      <trkpt lat="49.28563" lon="-0.35608">
        <ele>15.04</ele>
        <time>2018-09-05T13:19:22Z</time>
      </trkpt>
      <trkpt lat="49.28546" lon="-0.35603">
        <ele>14.56</ele>
        <time>2018-09-05T13:19:26Z</time>
      </trkpt>
      <trkpt lat="49.28451" lon="-0.3561">
        <ele>16</ele>
        <time>2018-09-05T13:19:46Z</time>
      </trkpt>
      <trkpt lat="49.28376" lon="-0.3562">
        <ele>16.96</ele>
        <time>2018-09-05T13:20:02Z</time>
      </trkpt>
      <trkpt lat="49.28293" lon="-0.3562">
        <ele>17.92</ele>
        <time>2018-09-05T13:20:20Z</time>
      </trkpt>
      <trkpt lat="49.28197" lon="-0.35622">
        <ele>17.92</ele>
        <time>2018-09-05T13:20:38Z</time>
      </trkpt>
      <trkpt lat="49.281" lon="-0.35639">
        <ele>18.88</ele>
        <time>2018-09-05T13:20:56Z</time>
      </trkpt>
      <trkpt lat="49.2802" lon="-0.35652">
        <ele>20.32</ele>
        <time>2018-09-05T13:21:12Z</time>
      </trkpt>
      <trkpt lat="49.27966" lon="-0.35686">
        <ele>24.17</ele>
        <time>2018-09-05T13:21:27Z</time>
      </trkpt>
      <trkpt lat="49.27935" lon="-0.3568">
        <ele>24.17</ele>
        <time>2018-09-05T13:21:42Z</time>
      </trkpt>
      <trkpt lat="49.27902" lon="-0.35589">
        <ele>24.17</ele>
        <time>2018-09-05T13:22:01Z</time>
      </trkpt>
      <trkpt lat="49.2788" lon="-0.35551">
        <ele>24.17</ele>
        <time>2018-09-05T13:22:08Z</time>
      </trkpt>
      <trkpt lat="49.27861" lon="-0.35524">
        <ele>24.65</ele>
        <time>2018-09-05T13:22:14Z</time>
      </trkpt>
      <trkpt lat="49.27805" lon="-0.35421">
        <ele>24.65</ele>
        <time>2018-09-05T13:22:29Z</time>
      </trkpt>
      <trkpt lat="49.27754" lon="-0.35406">
        <ele>24.65</ele>
        <time>2018-09-05T13:22:39Z</time>
      </trkpt>
      <trkpt lat="49.2773" lon="-0.35385">
        <ele>25.13</ele>
        <time>2018-09-05T13:22:44Z</time>
      </trkpt>
      <trkpt lat="49.27694" lon="-0.35321">
        <ele>24.65</ele>
        <time>2018-09-05T13:22:53Z</time>
      </trkpt>
      <trkpt lat="49.2762" lon="-0.35262">
        <ele>27.05</ele>
        <time>2018-09-05T13:23:07Z</time>
      </trkpt>
      <trkpt lat="49.2754" lon="-0.35191">
        <ele>29.94</ele>
        <time>2018-09-05T13:23:22Z</time>
      </trkpt>
      <trkpt lat="49.27464" lon="-0.35156">
        <ele>33.78</ele>
        <time>2018-09-05T13:23:35Z</time>
      </trkpt>
      <trkpt lat="49.27458" lon="-0.35153">
        <ele>33.78</ele>
        <time>2018-09-05T13:23:36Z</time>
      </trkpt>
      <trkpt lat="49.27397" lon="-0.35132">
        <ele>36.19</ele>
        <time>2018-09-05T13:23:47Z</time>
      </trkpt>
      <trkpt lat="49.27363" lon="-0.35119">
        <ele>38.11</ele>
        <time>2018-09-05T13:23:53Z</time>
      </trkpt>
      <trkpt lat="49.27268" lon="-0.35079">
        <ele>41.47</ele>
        <time>2018-09-05T13:24:10Z</time>
      </trkpt>
      <trkpt lat="49.27102" lon="-0.34989">
        <ele>44.84</ele>
        <time>2018-09-05T13:24:39Z</time>
      </trkpt>
      <trkpt lat="49.26978" lon="-0.34893">
        <ele>44.36</ele>
        <time>2018-09-05T13:25:02Z</time>
      </trkpt>
      <trkpt lat="49.26866" lon="-0.34801">
        <ele>44.36</ele>
        <time>2018-09-05T13:25:23Z</time>
      </trkpt>
      <trkpt lat="49.26764" lon="-0.34697">
        <ele>44.36</ele>
        <time>2018-09-05T13:25:43Z</time>
      </trkpt>
      <trkpt lat="49.2665" lon="-0.346">
        <ele>43.4</ele>
        <time>2018-09-05T13:26:04Z</time>
      </trkpt>
      <trkpt lat="49.26528" lon="-0.34519">
        <ele>42.92</ele>
        <time>2018-09-05T13:26:26Z</time>
      </trkpt>
      <trkpt lat="49.26394" lon="-0.34458">
        <ele>39.55</ele>
        <time>2018-09-05T13:26:47Z</time>
      </trkpt>
      <trkpt lat="49.26326" lon="-0.34434">
        <ele>38.11</ele>
        <time>2018-09-05T13:26:57Z</time>
      </trkpt>
      <trkpt lat="49.2624" lon="-0.34393">
        <ele>34.74</ele>
        <time>2018-09-05T13:27:09Z</time>
      </trkpt>
      <trkpt lat="49.26224" lon="-0.34386">
        <ele>33.78</ele>
        <time>2018-09-05T13:27:11Z</time>
      </trkpt>
      <trkpt lat="49.26186" lon="-0.34377">
        <ele>30.9</ele>
        <time>2018-09-05T13:27:16Z</time>
      </trkpt>
      <trkpt lat="49.26139" lon="-0.3437">
        <ele>27.53</ele>
        <time>2018-09-05T13:27:23Z</time>
      </trkpt>
      <trkpt lat="49.26087" lon="-0.34348">
        <ele>24.65</ele>
        <time>2018-09-05T13:27:32Z</time>
      </trkpt>
      <trkpt lat="49.26073" lon="-0.3434">
        <ele>24.17</ele>
        <time>2018-09-05T13:27:34Z</time>
      </trkpt>
      <trkpt lat="49.26026" lon="-0.34295">
        <ele>22.73</ele>
        <time>2018-09-05T13:27:41Z</time>
      </trkpt>
      <trkpt lat="49.25986" lon="-0.34214">
        <ele>21.29</ele>
        <time>2018-09-05T13:27:54Z</time>
      </trkpt>
      <trkpt lat="49.25977" lon="-0.34201">
        <ele>21.29</ele>
        <time>2018-09-05T13:28:07Z</time>
      </trkpt>
      <trkpt lat="49.25977" lon="-0.34202">
        <ele>21.29</ele>
        <time>2018-09-05T13:28:08Z</time>
      </trkpt>
      <trkpt lat="49.2597" lon="-0.34212">
        <ele>20.81</ele>
        <time>2018-09-05T13:28:13Z</time>
      </trkpt>
      <trkpt lat="49.25931" lon="-0.34295">
        <ele>19.84</ele>
        <time>2018-09-05T13:28:27Z</time>
      </trkpt>
      <trkpt lat="49.25903" lon="-0.34372">
        <ele>20.32</ele>
        <time>2018-09-05T13:28:43Z</time>
      </trkpt>
      <trkpt lat="49.25938" lon="-0.34436">
        <ele>22.25</ele>
        <time>2018-09-05T13:28:56Z</time>
      </trkpt>
      <trkpt lat="49.25945" lon="-0.34454">
        <ele>23.21</ele>
        <time>2018-09-05T13:28:59Z</time>
      </trkpt>
      <trkpt lat="49.25975" lon="-0.34567">
        <ele>25.61</ele>
        <time>2018-09-05T13:29:16Z</time>
      </trkpt>
      <trkpt lat="49.25961" lon="-0.34627">
        <ele>27.53</ele>
        <time>2018-09-05T13:29:29Z</time>
      </trkpt>
      <trkpt lat="49.25922" lon="-0.34664">
        <ele>28.02</ele>
        <time>2018-09-05T13:29:43Z</time>
      </trkpt>
      <trkpt lat="49.25846" lon="-0.34724">
        <ele>29.94</ele>
        <time>2018-09-05T13:30:00Z</time>
      </trkpt>
      <trkpt lat="49.25756" lon="-0.34803">
        <ele>31.86</ele>
        <time>2018-09-05T13:30:20Z</time>
      </trkpt>
      <trkpt lat="49.25682" lon="-0.34878">
        <ele>33.3</ele>
        <time>2018-09-05T13:30:37Z</time>
      </trkpt>
      <trkpt lat="49.25641" lon="-0.34927">
        <ele>32.82</ele>
        <time>2018-09-05T13:30:48Z</time>
      </trkpt>
      <trkpt lat="49.25633" lon="-0.34939">
        <ele>33.3</ele>
        <time>2018-09-05T13:30:50Z</time>
      </trkpt>
      <trkpt lat="49.25549" lon="-0.35071">
        <ele>34.74</ele>
        <time>2018-09-05T13:31:11Z</time>
      </trkpt>
      <trkpt lat="49.25498" lon="-0.35222">
        <ele>35.23</ele>
        <time>2018-09-05T13:31:30Z</time>
      </trkpt>
      <trkpt lat="49.25461" lon="-0.35375">
        <ele>36.67</ele>
        <time>2018-09-05T13:31:49Z</time>
      </trkpt>
      <trkpt lat="49.2543" lon="-0.35518">
        <ele>36.67</ele>
        <time>2018-09-05T13:32:07Z</time>
      </trkpt>
      <trkpt lat="49.25389" lon="-0.35703">
        <ele>36.67</ele>
        <time>2018-09-05T13:32:28Z</time>
      </trkpt>
      <trkpt lat="49.25351" lon="-0.35882">
        <ele>37.63</ele>
        <time>2018-09-05T13:32:48Z</time>
      </trkpt>
      <trkpt lat="49.25322" lon="-0.36071">
        <ele>39.07</ele>
        <time>2018-09-05T13:33:11Z</time>
      </trkpt>
      <trkpt lat="49.25326" lon="-0.36205">
        <ele>40.03</ele>
        <time>2018-09-05T13:33:28Z</time>
      </trkpt>
      <trkpt lat="49.25336" lon="-0.36331">
        <ele>41.95</ele>
        <time>2018-09-05T13:33:46Z</time>
      </trkpt>
      <trkpt lat="49.25339" lon="-0.36487">
        <ele>41.95</ele>
        <time>2018-09-05T13:34:08Z</time>
      </trkpt>
      <trkpt lat="49.25345" lon="-0.36646">
        <ele>40.51</ele>
        <time>2018-09-05T13:34:28Z</time>
      </trkpt>
      <trkpt lat="49.25345" lon="-0.36668">
        <ele>40.03</ele>
        <time>2018-09-05T13:34:31Z</time>
      </trkpt>
      <trkpt lat="49.25339" lon="-0.36695">
        <ele>40.03</ele>
        <time>2018-09-05T13:34:35Z</time>
      </trkpt>
      <trkpt lat="49.25313" lon="-0.36779">
        <ele>39.07</ele>
        <time>2018-09-05T13:34:51Z</time>
      </trkpt>
      <trkpt lat="49.25373" lon="-0.36834">
        <ele>39.07</ele>
        <time>2018-09-05T13:35:05Z</time>
      </trkpt>
      <trkpt lat="49.25446" lon="-0.36935">
        <ele>38.11</ele>
        <time>2018-09-05T13:35:22Z</time>
      </trkpt>
      <trkpt lat="49.25452" lon="-0.36945">
        <ele>37.63</ele>
        <time>2018-09-05T13:35:24Z</time>
      </trkpt>
      <trkpt lat="49.2544" lon="-0.36992">
        <ele>36.67</ele>
        <time>2018-09-05T13:35:34Z</time>
      </trkpt>
      <trkpt lat="49.2542" lon="-0.37007">
        <ele>37.63</ele>
        <time>2018-09-05T13:35:39Z</time>
      </trkpt>
      <trkpt lat="49.25398" lon="-0.37004">
        <ele>37.63</ele>
        <time>2018-09-05T13:35:44Z</time>
      </trkpt>
      <trkpt lat="49.25384" lon="-0.36995">
        <ele>38.11</ele>
        <time>2018-09-05T13:35:47Z</time>
      </trkpt>
      <trkpt lat="49.25361" lon="-0.37">
        <ele>38.11</ele>
        <time>2018-09-05T13:35:52Z</time>
      </trkpt>
      <trkpt lat="49.25348" lon="-0.37011">
        <ele>38.11</ele>
        <time>2018-09-05T13:35:55Z</time>
      </trkpt>
      <trkpt lat="49.25332" lon="-0.37028">
        <ele>38.11</ele>
        <time>2018-09-05T13:35:59Z</time>
      </trkpt>
      <trkpt lat="49.25313" lon="-0.37073">
        <ele>39.07</ele>
        <time>2018-09-05T13:36:06Z</time>
      </trkpt>
      <trkpt lat="49.25301" lon="-0.37093">
        <ele>39.55</ele>
        <time>2018-09-05T13:36:10Z</time>
      </trkpt>
      <trkpt lat="49.25243" lon="-0.37154">
        <ele>39.55</ele>
        <time>2018-09-05T13:36:28Z</time>
      </trkpt>
      <trkpt lat="49.25242" lon="-0.37197">
        <ele>40.51</ele>
        <time>2018-09-05T13:36:40Z</time>
      </trkpt>
      <trkpt lat="49.25247" lon="-0.37231">
        <ele>40.99</ele>
        <time>2018-09-05T13:36:57Z</time>
      </trkpt>
      <trkpt lat="49.25254" lon="-0.37271">
        <ele>41.47</ele>
        <time>2018-09-05T13:37:20Z</time>
      </trkpt>
      <trkpt lat="49.25259" lon="-0.37298">
        <ele>41.47</ele>
        <time>2018-09-05T13:37:32Z</time>
      </trkpt>
      <trkpt lat="49.25261" lon="-0.37309">
        <ele>41.47</ele>
        <time>2018-09-05T13:38:09Z</time>
      </trkpt>
      <trkpt lat="49.2526" lon="-0.37316">
        <ele>41.95</ele>
        <time>2018-09-05T13:38:51Z</time>
      </trkpt>
      <trkpt lat="49.25257" lon="-0.37317">
        <ele>41.95</ele>
        <time>2018-09-05T13:39:59Z</time>
      </trkpt>
      <trkpt lat="49.25265" lon="-0.37385">
        <ele>42.44</ele>
        <time>2018-09-05T13:40:12Z</time>
      </trkpt>
      <trkpt lat="49.25269" lon="-0.37531">
        <ele>42.44</ele>
        <time>2018-09-05T13:40:32Z</time>
      </trkpt>
      <trkpt lat="49.25254" lon="-0.37689">
        <ele>42.92</ele>
        <time>2018-09-05T13:40:53Z</time>
      </trkpt>
      <trkpt lat="49.25239" lon="-0.37849">
        <ele>42.92</ele>
        <time>2018-09-05T13:41:13Z</time>
      </trkpt>
      <trkpt lat="49.25241" lon="-0.37866">
        <ele>43.4</ele>
        <time>2018-09-05T13:41:15Z</time>
      </trkpt>
      <trkpt lat="49.25259" lon="-0.3797">
        <ele>46.76</ele>
        <time>2018-09-05T13:41:28Z</time>
      </trkpt>
      <trkpt lat="49.25258" lon="-0.3806">
        <ele>48.68</ele>
        <time>2018-09-05T13:41:39Z</time>
      </trkpt>
      <trkpt lat="49.25254" lon="-0.38084">
        <ele>49.16</ele>
        <time>2018-09-05T13:41:42Z</time>
      </trkpt>
      <trkpt lat="49.25201" lon="-0.38216">
        <ele>49.16</ele>
        <time>2018-09-05T13:42:02Z</time>
      </trkpt>
      <trkpt lat="49.25173" lon="-0.38286">
        <ele>46.76</ele>
        <time>2018-09-05T13:42:13Z</time>
      </trkpt>
      <trkpt lat="49.25192" lon="-0.38346">
        <ele>46.28</ele>
        <time>2018-09-05T13:42:23Z</time>
      </trkpt>
      <trkpt lat="49.25236" lon="-0.3832">
        <ele>44.36</ele>
        <time>2018-09-05T13:42:31Z</time>
      </trkpt>
      <trkpt lat="49.25275" lon="-0.3828">
        <ele>45.32</ele>
        <time>2018-09-05T13:42:39Z</time>
      </trkpt>
      <trkpt lat="49.25349" lon="-0.38294">
        <ele>45.32</ele>
        <time>2018-09-05T13:42:51Z</time>
      </trkpt>
      <trkpt lat="49.25446" lon="-0.38354">
        <ele>48.68</ele>
        <time>2018-09-05T13:43:08Z</time>
      </trkpt>
      <trkpt lat="49.25591" lon="-0.38402">
        <ele>51.09</ele>
        <time>2018-09-05T13:43:33Z</time>
      </trkpt>
      <trkpt lat="49.25708" lon="-0.38405">
        <ele>52.53</ele>
        <time>2018-09-05T13:43:53Z</time>
      </trkpt>
      <trkpt lat="49.25818" lon="-0.38383">
        <ele>52.53</ele>
        <time>2018-09-05T13:44:12Z</time>
      </trkpt>
      <trkpt lat="49.25927" lon="-0.38337">
        <ele>51.09</ele>
        <time>2018-09-05T13:44:31Z</time>
      </trkpt>
      <trkpt lat="49.25957" lon="-0.38328">
        <ele>51.09</ele>
        <time>2018-09-05T13:44:37Z</time>
      </trkpt>
      <trkpt lat="49.25972" lon="-0.38314">
        <ele>51.09</ele>
        <time>2018-09-05T13:44:41Z</time>
      </trkpt>
      <trkpt lat="49.25979" lon="-0.38306">
        <ele>51.09</ele>
        <time>2018-09-05T13:44:43Z</time>
      </trkpt>
      <trkpt lat="49.2602" lon="-0.38326">
        <ele>51.09</ele>
        <time>2018-09-05T13:44:53Z</time>
      </trkpt>
      <trkpt lat="49.26097" lon="-0.38419">
        <ele>52.05</ele>
        <time>2018-09-05T13:45:10Z</time>
      </trkpt>
      <trkpt lat="49.26132" lon="-0.38579">
        <ele>53.01</ele>
        <time>2018-09-05T13:45:29Z</time>
      </trkpt>
      <trkpt lat="49.26137" lon="-0.38758">
        <ele>53.01</ele>
        <time>2018-09-05T13:45:49Z</time>
      </trkpt>
      <trkpt lat="49.26142" lon="-0.38799">
        <ele>52.53</ele>
        <time>2018-09-05T13:45:54Z</time>
      </trkpt>
      <trkpt lat="49.26199" lon="-0.38924">
        <ele>53.01</ele>
        <time>2018-09-05T13:46:11Z</time>
      </trkpt>
      <trkpt lat="49.26263" lon="-0.3907">
        <ele>52.53</ele>
        <time>2018-09-05T13:46:31Z</time>
      </trkpt>
      <trkpt lat="49.26312" lon="-0.39184">
        <ele>50.13</ele>
        <time>2018-09-05T13:46:47Z</time>
      </trkpt>
      <trkpt lat="49.26371" lon="-0.39286">
        <ele>47.24</ele>
        <time>2018-09-05T13:47:01Z</time>
      </trkpt>
      <trkpt lat="49.26376" lon="-0.39293">
        <ele>46.76</ele>
        <time>2018-09-05T13:47:02Z</time>
      </trkpt>
      <trkpt lat="49.26444" lon="-0.39406">
        <ele>45.8</ele>
        <time>2018-09-05T13:47:20Z</time>
      </trkpt>
      <trkpt lat="49.2645" lon="-0.39442">
        <ele>45.8</ele>
        <time>2018-09-05T13:47:25Z</time>
      </trkpt>
      <trkpt lat="49.26451" lon="-0.39458">
        <ele>46.28</ele>
        <time>2018-09-05T13:47:27Z</time>
      </trkpt>
      <trkpt lat="49.26461" lon="-0.39492">
        <ele>46.76</ele>
        <time>2018-09-05T13:47:32Z</time>
      </trkpt>
      <trkpt lat="49.26489" lon="-0.39553">
        <ele>48.68</ele>
        <time>2018-09-05T13:47:41Z</time>
      </trkpt>
      <trkpt lat="49.2654" lon="-0.39681">
        <ele>50.61</ele>
        <time>2018-09-05T13:47:59Z</time>
      </trkpt>
      <trkpt lat="49.26604" lon="-0.39821">
        <ele>53.01</ele>
        <time>2018-09-05T13:48:19Z</time>
      </trkpt>
      <trkpt lat="49.26651" lon="-0.39922">
        <ele>54.93</ele>
        <time>2018-09-05T13:48:35Z</time>
      </trkpt>
      <trkpt lat="49.26689" lon="-0.40049">
        <ele>55.41</ele>
        <time>2018-09-05T13:48:53Z</time>
      </trkpt>
      <trkpt lat="49.2671" lon="-0.40135">
        <ele>55.89</ele>
        <time>2018-09-05T13:49:08Z</time>
      </trkpt>
      <trkpt lat="49.26682" lon="-0.40178">
        <ele>55.89</ele>
        <time>2018-09-05T13:49:17Z</time>
      </trkpt>
      <trkpt lat="49.2665" lon="-0.40214">
        <ele>55.89</ele>
        <time>2018-09-05T13:49:26Z</time>
      </trkpt>
      <trkpt lat="49.26638" lon="-0.40259">
        <ele>56.37</ele>
        <time>2018-09-05T13:49:33Z</time>
      </trkpt>
      <trkpt lat="49.26638" lon="-0.40321">
        <ele>56.37</ele>
        <time>2018-09-05T13:49:41Z</time>
      </trkpt>
      <trkpt lat="49.26631" lon="-0.40349">
        <ele>56.37</ele>
        <time>2018-09-05T13:49:45Z</time>
      </trkpt>
      <trkpt lat="49.26628" lon="-0.40425">
        <ele>55.89</ele>
        <time>2018-09-05T13:49:59Z</time>
      </trkpt>
      <trkpt lat="49.26687" lon="-0.40517">
        <ele>54.45</ele>
        <time>2018-09-05T13:50:17Z</time>
      </trkpt>
      <trkpt lat="49.26778" lon="-0.4062">
        <ele>51.09</ele>
        <time>2018-09-05T13:50:38Z</time>
      </trkpt>
      <trkpt lat="49.26858" lon="-0.40739">
        <ele>48.2</ele>
        <time>2018-09-05T13:50:56Z</time>
      </trkpt>
      <trkpt lat="49.26925" lon="-0.4085">
        <ele>46.76</ele>
        <time>2018-09-05T13:51:11Z</time>
      </trkpt>
      <trkpt lat="49.26958" lon="-0.40888">
        <ele>46.28</ele>
        <time>2018-09-05T13:51:22Z</time>
      </trkpt>
      <trkpt lat="49.27033" lon="-0.40975">
        <ele>46.28</ele>
        <time>2018-09-05T13:51:37Z</time>
      </trkpt>
      <trkpt lat="49.27102" lon="-0.4115">
        <ele>46.28</ele>
        <time>2018-09-05T13:51:58Z</time>
      </trkpt>
      <trkpt lat="49.27179" lon="-0.41314">
        <ele>48.2</ele>
        <time>2018-09-05T13:52:19Z</time>
      </trkpt>
      <trkpt lat="49.27319" lon="-0.41456">
        <ele>50.13</ele>
        <time>2018-09-05T13:52:46Z</time>
      </trkpt>
      <trkpt lat="49.27433" lon="-0.41605">
        <ele>52.05</ele>
        <time>2018-09-05T13:53:10Z</time>
      </trkpt>
      <trkpt lat="49.27578" lon="-0.4177">
        <ele>55.41</ele>
        <time>2018-09-05T13:53:40Z</time>
      </trkpt>
      <trkpt lat="49.27672" lon="-0.41859">
        <ele>55.89</ele>
        <time>2018-09-05T13:54:01Z</time>
      </trkpt>
      <trkpt lat="49.27694" lon="-0.41883">
        <ele>55.89</ele>
        <time>2018-09-05T13:54:07Z</time>
      </trkpt>
      <trkpt lat="49.27717" lon="-0.41889">
        <ele>55.41</ele>
        <time>2018-09-05T13:54:13Z</time>
      </trkpt>
      <trkpt lat="49.27748" lon="-0.41886">
        <ele>55.41</ele>
        <time>2018-09-05T13:54:21Z</time>
      </trkpt>
      <trkpt lat="49.27764" lon="-0.4187">
        <ele>56.37</ele>
        <time>2018-09-05T13:54:25Z</time>
      </trkpt>
      <trkpt lat="49.27775" lon="-0.41861">
        <ele>55.41</ele>
        <time>2018-09-05T13:54:28Z</time>
      </trkpt>
      <trkpt lat="49.27878" lon="-0.4182">
        <ele>56.37</ele>
        <time>2018-09-05T13:54:46Z</time>
      </trkpt>
      <trkpt lat="49.27948" lon="-0.41812">
        <ele>55.89</ele>
        <time>2018-09-05T13:54:58Z</time>
      </trkpt>
      <trkpt lat="49.28048" lon="-0.41835">
        <ele>55.89</ele>
        <time>2018-09-05T13:55:16Z</time>
      </trkpt>
      <trkpt lat="49.28135" lon="-0.418">
        <ele>55.89</ele>
        <time>2018-09-05T13:55:34Z</time>
      </trkpt>
      <trkpt lat="49.28159" lon="-0.41796">
        <ele>54.93</ele>
        <time>2018-09-05T13:55:46Z</time>
      </trkpt>
      <trkpt lat="49.28219" lon="-0.41769">
        <ele>54.45</ele>
        <time>2018-09-05T13:56:01Z</time>
      </trkpt>
      <trkpt lat="49.28313" lon="-0.41698">
        <ele>53.49</ele>
        <time>2018-09-05T13:56:18Z</time>
      </trkpt>
      <trkpt lat="49.28425" lon="-0.41605">
        <ele>52.05</ele>
        <time>2018-09-05T13:56:39Z</time>
      </trkpt>
      <trkpt lat="49.2849" lon="-0.41593">
        <ele>52.05</ele>
        <time>2018-09-05T13:56:51Z</time>
      </trkpt>
      <trkpt lat="49.28533" lon="-0.41622">
        <ele>52.05</ele>
        <time>2018-09-05T13:56:59Z</time>
      </trkpt>
      <trkpt lat="49.28598" lon="-0.41619">
        <ele>52.53</ele>
        <time>2018-09-05T13:57:10Z</time>
      </trkpt>
      <trkpt lat="49.28713" lon="-0.41522">
        <ele>54.45</ele>
        <time>2018-09-05T13:57:33Z</time>
      </trkpt>
      <trkpt lat="49.2878" lon="-0.41472">
        <ele>54.93</ele>
        <time>2018-09-05T13:57:49Z</time>
      </trkpt>
      <trkpt lat="49.28798" lon="-0.41454">
        <ele>54.93</ele>
        <time>2018-09-05T13:58:02Z</time>
      </trkpt>
      <trkpt lat="49.28831" lon="-0.41438">
        <ele>55.89</ele>
        <time>2018-09-05T13:58:33Z</time>
      </trkpt>
      <trkpt lat="49.28905" lon="-0.41391">
        <ele>56.86</ele>
        <time>2018-09-05T13:58:49Z</time>
      </trkpt>
      <trkpt lat="49.28999" lon="-0.41337">
        <ele>58.3</ele>
        <time>2018-09-05T13:59:08Z</time>
      </trkpt>
      <trkpt lat="49.29073" lon="-0.41278">
        <ele>57.82</ele>
        <time>2018-09-05T13:59:24Z</time>
      </trkpt>
      <trkpt lat="49.29096" lon="-0.41213">
        <ele>58.78</ele>
        <time>2018-09-05T13:59:32Z</time>
      </trkpt>
      <trkpt lat="49.29129" lon="-0.41155">
        <ele>58.3</ele>
        <time>2018-09-05T13:59:41Z</time>
      </trkpt>
      <trkpt lat="49.29224" lon="-0.41157">
        <ele>57.82</ele>
        <time>2018-09-05T13:59:56Z</time>
      </trkpt>
      <trkpt lat="49.29364" lon="-0.41172">
        <ele>56.86</ele>
        <time>2018-09-05T14:00:19Z</time>
      </trkpt>
      <trkpt lat="49.29502" lon="-0.41175">
        <ele>55.41</ele>
        <time>2018-09-05T14:00:41Z</time>
      </trkpt>
      <trkpt lat="49.29675" lon="-0.41176">
        <ele>53.01</ele>
        <time>2018-09-05T14:01:09Z</time>
      </trkpt>
      <trkpt lat="49.29801" lon="-0.41169">
        <ele>49.65</ele>
        <time>2018-09-05T14:01:29Z</time>
      </trkpt>
      <trkpt lat="49.29948" lon="-0.41147">
        <ele>47.24</ele>
        <time>2018-09-05T14:01:51Z</time>
      </trkpt>
      <trkpt lat="49.30013" lon="-0.41127">
        <ele>44.36</ele>
        <time>2018-09-05T14:02:01Z</time>
      </trkpt>
      <trkpt lat="49.30065" lon="-0.41133">
        <ele>44.36</ele>
        <time>2018-09-05T14:02:13Z</time>
      </trkpt>
      <trkpt lat="49.30204" lon="-0.41108">
        <ele>43.4</ele>
        <time>2018-09-05T14:02:36Z</time>
      </trkpt>
      <trkpt lat="49.30252" lon="-0.41078">
        <ele>42.44</ele>
        <time>2018-09-05T14:02:45Z</time>
      </trkpt>
      <trkpt lat="49.30279" lon="-0.41071">
        <ele>42.92</ele>
        <time>2018-09-05T14:02:50Z</time>
      </trkpt>
      <trkpt lat="49.30373" lon="-0.41088">
        <ele>42.92</ele>
        <time>2018-09-05T14:03:11Z</time>
      </trkpt>
      <trkpt lat="49.3042" lon="-0.41073">
        <ele>40.51</ele>
        <time>2018-09-05T14:03:29Z</time>
      </trkpt>
      <trkpt lat="49.30422" lon="-0.41">
        <ele>39.55</ele>
        <time>2018-09-05T14:03:43Z</time>
      </trkpt>
      <trkpt lat="49.30426" lon="-0.40924">
        <ele>38.11</ele>
        <time>2018-09-05T14:03:53Z</time>
      </trkpt>
      <trkpt lat="49.30448" lon="-0.40908">
        <ele>38.59</ele>
        <time>2018-09-05T14:04:02Z</time>
      </trkpt>
      <trkpt lat="49.30452" lon="-0.40907">
        <ele>39.07</ele>
        <time>2018-09-05T14:04:03Z</time>
      </trkpt>
      <trkpt lat="49.3055" lon="-0.40889">
        <ele>39.07</ele>
        <time>2018-09-05T14:04:23Z</time>
      </trkpt>
      <trkpt lat="49.30585" lon="-0.40886">
        <ele>38.11</ele>
        <time>2018-09-05T14:04:32Z</time>
      </trkpt>
      <trkpt lat="49.30593" lon="-0.40882">
        <ele>38.59</ele>
        <time>2018-09-05T14:04:34Z</time>
      </trkpt>
      <trkpt lat="49.30612" lon="-0.40862">
        <ele>38.59</ele>
        <time>2018-09-05T14:04:40Z</time>
      </trkpt>
      <trkpt lat="49.30628" lon="-0.40796">
        <ele>39.55</ele>
        <time>2018-09-05T14:04:54Z</time>
      </trkpt>
      <trkpt lat="49.30702" lon="-0.40728">
        <ele>40.03</ele>
        <time>2018-09-05T14:05:16Z</time>
      </trkpt>
      <trkpt lat="49.30799" lon="-0.40674">
        <ele>37.15</ele>
        <time>2018-09-05T14:05:36Z</time>
      </trkpt>
      <trkpt lat="49.3091" lon="-0.40621">
        <ele>35.71</ele>
        <time>2018-09-05T14:05:56Z</time>
      </trkpt>
      <trkpt lat="49.30914" lon="-0.4062">
        <ele>35.71</ele>
        <time>2018-09-05T14:05:57Z</time>
      </trkpt>
      <trkpt lat="49.31025" lon="-0.40609">
        <ele>33.78</ele>
        <time>2018-09-05T14:06:15Z</time>
      </trkpt>
      <trkpt lat="49.31151" lon="-0.40593">
        <ele>30.9</ele>
        <time>2018-09-05T14:06:36Z</time>
      </trkpt>
      <trkpt lat="49.31273" lon="-0.4054">
        <ele>29.46</ele>
        <time>2018-09-05T14:06:57Z</time>
      </trkpt>
      <trkpt lat="49.31366" lon="-0.40451">
        <ele>28.02</ele>
        <time>2018-09-05T14:07:16Z</time>
      </trkpt>
      <trkpt lat="49.31452" lon="-0.40357">
        <ele>26.57</ele>
        <time>2018-09-05T14:07:35Z</time>
      </trkpt>
      <trkpt lat="49.31556" lon="-0.40279">
        <ele>24.65</ele>
        <time>2018-09-05T14:07:55Z</time>
      </trkpt>
      <trkpt lat="49.31585" lon="-0.40261">
        <ele>23.69</ele>
        <time>2018-09-05T14:08:00Z</time>
      </trkpt>
      <trkpt lat="49.31651" lon="-0.40233">
        <ele>21.29</ele>
        <time>2018-09-05T14:08:12Z</time>
      </trkpt>
      <trkpt lat="49.31738" lon="-0.40205">
        <ele>18.4</ele>
        <time>2018-09-05T14:08:26Z</time>
      </trkpt>
      <trkpt lat="49.31871" lon="-0.40143">
        <ele>15.04</ele>
        <time>2018-09-05T14:08:48Z</time>
      </trkpt>
      <trkpt lat="49.31995" lon="-0.40088">
        <ele>14.08</ele>
        <time>2018-09-05T14:09:09Z</time>
      </trkpt>
      <trkpt lat="49.32174" lon="-0.39991">
        <ele>14.08</ele>
        <time>2018-09-05T14:09:39Z</time>
      </trkpt>
      <trkpt lat="49.32236" lon="-0.39952">
        <ele>12.63</ele>
        <time>2018-09-05T14:09:51Z</time>
      </trkpt>
      <trkpt lat="49.32344" lon="-0.39884">
        <ele>10.23</ele>
        <time>2018-09-05T14:10:11Z</time>
      </trkpt>
      <trkpt lat="49.32441" lon="-0.3982">
        <ele>10.23</ele>
        <time>2018-09-05T14:10:30Z</time>
      </trkpt>
      <trkpt lat="49.325" lon="-0.39783">
        <ele>9.75</ele>
        <time>2018-09-05T14:10:42Z</time>
      </trkpt>
      <trkpt lat="49.32517" lon="-0.39802">
        <ele>9.75</ele>
        <time>2018-09-05T14:10:49Z</time>
      </trkpt>
      <trkpt lat="49.32539" lon="-0.39922">
        <ele>11.67</ele>
        <time>2018-09-05T14:11:07Z</time>
      </trkpt>
      <trkpt lat="49.32567" lon="-0.40036">
        <ele>13.12</ele>
        <time>2018-09-05T14:11:25Z</time>
      </trkpt>
      <trkpt lat="49.3257" lon="-0.40037">
        <ele>13.12</ele>
        <time>2018-09-05T14:11:26Z</time>
      </trkpt>
      <trkpt lat="49.32594" lon="-0.40019">
        <ele>13.12</ele>
        <time>2018-09-05T14:11:34Z</time>
      </trkpt>
      <trkpt lat="49.32675" lon="-0.39969">
        <ele>12.63</ele>
        <time>2018-09-05T14:11:52Z</time>
      </trkpt>
      <trkpt lat="49.32764" lon="-0.39922">
        <ele>12.15</ele>
        <time>2018-09-05T14:12:11Z</time>
      </trkpt>
      <trkpt lat="49.32821" lon="-0.39892">
        <ele>10.71</ele>
        <time>2018-09-05T14:12:34Z</time>
      </trkpt>
      <trkpt lat="49.32845" lon="-0.39875">
        <ele>11.67</ele>
        <time>2018-09-05T14:12:46Z</time>
      </trkpt>
      <trkpt lat="49.32917" lon="-0.39838">
        <ele>11.19</ele>
        <time>2018-09-05T14:13:04Z</time>
      </trkpt>
      <trkpt lat="49.33004" lon="-0.39799">
        <ele>11.19</ele>
        <time>2018-09-05T14:13:25Z</time>
      </trkpt>
      <trkpt lat="49.3306" lon="-0.39782">
        <ele>10.71</ele>
        <time>2018-09-05T14:13:44Z</time>
      </trkpt>
      <trkpt lat="49.33111" lon="-0.39768">
        <ele>9.75</ele>
        <time>2018-09-05T14:14:06Z</time>
      </trkpt>
      <trkpt lat="49.33163" lon="-0.39763">
        <ele>10.23</ele>
        <time>2018-09-05T14:14:20Z</time>
      </trkpt>
      <trkpt lat="49.33234" lon="-0.39759">
        <ele>10.71</ele>
        <time>2018-09-05T14:14:38Z</time>
      </trkpt>
      <trkpt lat="49.33266" lon="-0.39751">
        <ele>9.75</ele>
        <time>2018-09-05T14:14:51Z</time>
      </trkpt>
      <trkpt lat="49.33268" lon="-0.39749">
        <ele>10.23</ele>
        <time>2018-09-05T14:14:54Z</time>
      </trkpt>
      <trkpt lat="49.33269" lon="-0.39738">
        <ele>10.23</ele>
        <time>2018-09-05T14:14:59Z</time>
      </trkpt>
      <trkpt lat="49.33256" lon="-0.39626">
        <ele>10.71</ele>
        <time>2018-09-05T14:15:15Z</time>
      </trkpt>
      <trkpt lat="49.33237" lon="-0.39463">
        <ele>8.31</ele>
        <time>2018-09-05T14:15:38Z</time>
      </trkpt>
      <trkpt lat="49.33228" lon="-0.39411">
        <ele>7.35</ele>
        <time>2018-09-05T14:15:56Z</time>
      </trkpt>
      <trkpt lat="49.33201" lon="-0.39348">
        <ele>6.39</ele>
        <time>2018-09-05T14:16:17Z</time>
      </trkpt>
      <trkpt lat="49.3319" lon="-0.39305">
        <ele>6.87</ele>
        <time>2018-09-05T14:16:36Z</time>
      </trkpt>
      <trkpt lat="49.33188" lon="-0.39301">
        <ele>6.87</ele>
        <time>2018-09-05T14:17:00Z</time>
      </trkpt>
      <trkpt lat="49.33178" lon="-0.39261">
        <ele>6.39</ele>
        <time>2018-09-05T14:17:40Z</time>
      </trkpt>
      <trkpt lat="49.33157" lon="-0.39183">
        <ele>6.87</ele>
        <time>2018-09-05T14:18:02Z</time>
      </trkpt>
      <trkpt lat="49.3314" lon="-0.39117">
        <ele>6.39</ele>
        <time>2018-09-05T14:18:22Z</time>
      </trkpt>
      <trkpt lat="49.33129" lon="-0.39066">
        <ele>5.91</ele>
        <time>2018-09-05T14:18:38Z</time>
      </trkpt>
      <trkpt lat="49.3312" lon="-0.39023">
        <ele>5.91</ele>
        <time>2018-09-05T14:18:59Z</time>
      </trkpt>
      <trkpt lat="49.33097" lon="-0.38942">
        <ele>6.87</ele>
        <time>2018-09-05T14:19:18Z</time>
      </trkpt>
      <trkpt lat="49.33081" lon="-0.38875">
        <ele>7.35</ele>
        <time>2018-09-05T14:19:39Z</time>
      </trkpt>
      <trkpt lat="49.33064" lon="-0.38803">
        <ele>6.39</ele>
        <time>2018-09-05T14:19:54Z</time>
      </trkpt>
      <trkpt lat="49.33045" lon="-0.3871">
        <ele>6.39</ele>
        <time>2018-09-05T14:20:16Z</time>
      </trkpt>
      <trkpt lat="49.33024" lon="-0.38612">
        <ele>6.39</ele>
        <time>2018-09-05T14:20:39Z</time>
      </trkpt>
      <trkpt lat="49.3301" lon="-0.3855">
        <ele>5.91</ele>
        <time>2018-09-05T14:20:57Z</time>
      </trkpt>
      <trkpt lat="49.32997" lon="-0.38492">
        <ele>6.87</ele>
        <time>2018-09-05T14:21:17Z</time>
      </trkpt>
      <trkpt lat="49.32972" lon="-0.38376">
        <ele>5.91</ele>
        <time>2018-09-05T14:21:41Z</time>
      </trkpt>
      <trkpt lat="49.32951" lon="-0.38295">
        <ele>6.87</ele>
        <time>2018-09-05T14:21:59Z</time>
      </trkpt>
      <trkpt lat="49.32923" lon="-0.38189">
        <ele>7.35</ele>
        <time>2018-09-05T14:22:19Z</time>
      </trkpt>
      <trkpt lat="49.32893" lon="-0.38072">
        <ele>7.83</ele>
        <time>2018-09-05T14:22:40Z</time>
      </trkpt>
      <trkpt lat="49.32868" lon="-0.37987">
        <ele>6.87</ele>
        <time>2018-09-05T14:23:04Z</time>
      </trkpt>
      <trkpt lat="49.32862" lon="-0.37971">
        <ele>6.87</ele>
        <time>2018-09-05T14:23:32Z</time>
      </trkpt>
      <trkpt lat="49.32854" lon="-0.37959">
        <ele>7.83</ele>
        <time>2018-09-05T14:23:50Z</time>
      </trkpt>
      <trkpt lat="49.32821" lon="-0.37981">
        <ele>8.79</ele>
        <time>2018-09-05T14:24:07Z</time>
      </trkpt>
      <trkpt lat="49.32813" lon="-0.37984">
        <ele>9.27</ele>
        <time>2018-09-05T14:24:23Z</time>
      </trkpt>
      <trkpt lat="49.328" lon="-0.37943">
        <ele>9.27</ele>
        <time>2018-09-05T14:24:35Z</time>
      </trkpt>
      <trkpt lat="49.32795" lon="-0.37921">
        <ele>9.27</ele>
        <time>2018-09-05T14:24:40Z</time>
      </trkpt>
      <trkpt lat="49.3278" lon="-0.3792">
        <ele>9.27</ele>
        <time>2018-09-05T14:24:47Z</time>
      </trkpt>
      <trkpt lat="49.32738" lon="-0.37953">
        <ele>10.71</ele>
        <time>2018-09-05T14:25:03Z</time>
      </trkpt>
      <trkpt lat="49.32697" lon="-0.37988">
        <ele>11.19</ele>
        <time>2018-09-05T14:25:22Z</time>
      </trkpt>
      <trkpt lat="49.32689" lon="-0.3803">
        <ele>11.19</ele>
        <time>2018-09-05T14:25:38Z</time>
      </trkpt>
      <trkpt lat="49.32695" lon="-0.38067">
        <ele>11.19</ele>
        <time>2018-09-05T14:25:53Z</time>
      </trkpt>
      <trkpt lat="49.32676" lon="-0.38082">
        <ele>11.19</ele>
        <time>2018-09-05T14:26:10Z</time>
      </trkpt>
    </trkseg>
  </trk>
</gpx>